Time;durP1;ratioP1;P1;durP2;ratioP2;P2;SDS_P1;SDS_P2;PMS_P1;PMS_P2;Temp;Humidity;BMP_temperature;BMP_pressure;BME280_temperature;BME280_humidity;BME280_pressure;Samples;Min_cycle;Max_cycle;Signal;HPM_P1;HPM_P2
2022/03/12 00:01:30;;;;;;;24.05;10.48;;;;;;;3.64;23.01;102049.03;5009601;28;20128;-70
2022/03/12 00:04:00;;;;;;;29.88;10.48;;;;;;;3.35;23.02;102046.16;5010510;28;20141;-70
2022/03/12 00:06:27;;;;;;;32.00;11.30;;;;;;;3.52;23.21;102047.06;5010040;28;20045;-70
2022/03/12 00:08:54;;;;;;;26.95;10.68;;;;;;;3.43;23.33;102044.88;5011482;28;20142;-70
2022/03/12 00:11:24;;;;;;;30.88;11.15;;;;;;;3.74;22.90;102044.09;5014245;28;20042;-70
2022/03/12 00:13:53;;;;;;;27.38;10.95;;;;;;;3.28;23.29;102042.09;5014435;28;20084;-70
2022/03/12 00:16:23;;;;;;;26.15;10.75;;;;;;;3.44;23.11;102055.41;5033363;28;20131;-70
2022/03/12 00:18:55;;;;;;;28.27;10.75;;;;;;;3.11;23.14;102037.69;5033497;28;20068;-71
2022/03/12 00:21:24;;;;;;;25.00;10.80;;;;;;;3.71;22.89;102047.75;5034118;28;20068;-70
2022/03/12 00:23:53;;;;;;;26.88;10.57;;;;;;;3.83;23.18;102038.28;5034087;28;20497;-70
2022/03/12 00:26:23;;;;;;;27.30;10.77;;;;;;;3.25;23.30;102033.44;5033054;28;20099;-70
2022/03/12 00:28:53;;;;;;;29.42;11.30;;;;;;;3.13;23.74;102034.94;5034664;28;20054;-70
2022/03/12 00:31:20;;;;;;;27.70;10.95;;;;;;;3.43;23.53;102040.44;5033769;28;20053;-70
2022/03/12 00:33:47;;;;;;;31.23;11.07;;;;;;;3.09;23.52;102034.22;5033144;28;20041;-70
2022/03/12 00:36:15;;;;;;;33.33;11.43;;;;;;;3.16;23.45;102034.78;5034904;28;20454;-70
2022/03/12 00:38:42;;;;;;;32.25;11.20;;;;;;;3.34;23.31;102032.94;5033398;28;20148;-70
2022/03/12 00:41:09;;;;;;;32.03;11.23;;;;;;;3.18;23.85;102034.72;5033291;28;20076;-71
2022/03/12 00:43:35;;;;;;;26.27;10.20;;;;;;;3.29;23.98;102033.19;5032316;28;20124;-71
2022/03/12 00:46:05;;;;;;;24.67;10.98;;;;;;;2.96;24.29;102043.75;5033672;28;20136;-71
2022/03/12 00:48:32;;;;;;;28.38;11.02;;;;;;;3.08;23.86;102036.97;5029667;28;20134;-71
2022/03/12 00:51:04;;;;;;;28.17;10.45;;;;;;;3.58;22.95;102041.41;5013046;28;20049;-71
2022/03/12 00:53:31;;;;;;;31.17;10.88;;;;;;;3.49;23.26;102044.56;5013316;28;20484;-71
2022/03/12 00:55:57;;;;;;;30.08;11.07;;;;;;;3.28;23.68;102041.25;5012679;28;20180;-71
2022/03/12 00:58:23;;;;;;;29.25;11.57;;;;;;;3.48;23.64;102043.72;5013534;28;20038;-71
2022/03/12 01:00:50;;;;;;;32.58;11.57;;;;;;;3.36;23.55;102034.59;5014010;28;20073;-71
2022/03/12 01:03:17;;;;;;;27.45;11.35;;;;;;;3.52;23.51;102026.69;5013686;28;20050;-71
2022/03/12 01:05:49;;;;;;;27.38;10.93;;;;;;;3.30;23.62;102028.75;5014381;28;20068;-70
2022/03/12 01:08:17;;;;;;;27.75;12.57;;;;;;;2.95;24.27;102027.94;5013885;28;20117;-70
2022/03/12 01:10:46;;;;;;;29.05;11.18;;;;;;;3.40;23.44;102014.06;5014887;28;20046;-71
2022/03/12 01:13:13;;;;;;;30.48;12.70;;;;;;;3.39;23.69;102026.47;5020431;28;20103;-71
2022/03/12 01:15:41;;;;;;;30.67;11.45;;;;;;;3.55;23.45;102028.28;5018907;28;20401;-71
2022/03/12 01:18:17;;;;;;;28.63;11.93;;;;;;;3.20;23.85;102023.06;5031084;28;20477;-71
2022/03/12 01:20:44;;;;;;;34.92;11.60;;;;;;;3.03;24.09;102016.03;5030929;28;20125;-71
2022/03/12 01:23:13;;;;;;;24.95;10.32;;;;;;;3.24;23.58;102016.69;5012974;28;20398;-71
2022/03/12 01:25:41;;;;;;;31.13;10.77;;;;;;;2.91;24.14;102022.78;5013404;28;20073;-71
2022/03/12 01:28:09;;;;;;;26.73;11.15;;;;;;;2.92;24.22;102021.00;5011677;28;20132;-71
2022/03/12 01:30:37;;;;;;;37.55;12.02;;;;;;;3.35;24.38;102018.75;5027462;28;20451;-71
2022/03/12 01:33:03;;;;;;;29.65;12.23;;;;;;;3.00;24.15;102013.53;5034064;28;20088;-71
2022/03/12 01:35:31;;;;;;;27.27;11.02;;;;;;;3.17;24.26;102017.06;5032268;28;20474;-71
2022/03/12 01:37:57;;;;;;;32.03;12.23;;;;;;;2.62;24.57;102011.03;5032807;28;20080;-71
2022/03/12 01:40:24;;;;;;;31.35;12.30;;;;;;;2.70;24.51;102009.78;5033529;28;20041;-70
2022/03/12 01:42:50;;;;;;;34.88;11.95;;;;;;;3.20;24.22;102012.44;5031942;28;20128;-70
2022/03/12 01:45:26;;;;;;;28.85;11.60;;;;;;;3.15;23.91;102010.06;5032049;28;20049;-71
2022/03/12 01:47:59;;;;;;;28.60;11.68;;;;;;;3.25;24.46;102013.09;5028976;28;20050;-70
2022/03/12 01:50:31;;;;;;;31.55;11.27;;;;;;;3.07;24.60;102001.66;5021601;28;20050;-71
2022/03/12 01:52:59;;;;;;;29.60;11.88;;;;;;;3.30;24.03;102010.19;5013730;28;20061;-71
2022/03/12 01:55:31;;;;;;;31.90;12.20;;;;;;;3.23;23.97;102011.44;5028986;28;20046;-71
2022/03/12 01:58:01;;;;;;;34.17;11.40;;;;;;;3.00;24.21;102012.66;5032123;28;20099;-70
2022/03/12 02:00:41;;;;;;;34.35;12.15;;;;;;;3.01;23.92;102012.56;5022886;28;20045;-70
2022/03/12 02:03:08;;;;;;;31.35;11.80;;;;;;;3.29;24.29;102019.09;5025343;28;20056;-70
2022/03/12 02:09:15;;;;;;;28.25;11.52;;;;;;;3.45;24.47;102012.03;5033207;28;20496;-71
2022/03/12 02:11:44;;;;;;;31.90;11.60;;;;;;;3.26;24.19;102008.63;5003131;28;20145;-71
2022/03/12 02:14:13;;;;;;;41.20;13.10;;;;;;;3.59;24.07;102008.63;5011814;28;20141;-71
2022/03/12 02:16:45;;;;;;;29.75;11.98;;;;;;;3.57;24.09;102005.19;5012785;28;20132;-70
2022/03/12 02:19:11;;;;;;;27.90;11.65;;;;;;;3.34;24.23;102004.66;5023167;28;20064;-70
2022/03/12 02:21:44;;;;;;;36.72;11.45;;;;;;;3.29;24.50;102006.69;5031928;28;20046;-70
2022/03/12 02:24:14;;;;;;;27.60;11.25;;;;;;;3.04;24.10;101996.50;5031105;28;20053;-70
2022/03/12 02:26:43;;;;;;;34.72;12.00;;;;;;;2.84;24.69;101994.03;5031190;28;20065;-71
2022/03/12 02:29:12;;;;;;;34.88;12.38;;;;;;;2.89;24.71;101992.88;5030371;28;20132;-71
2022/03/12 02:31:40;;;;;;;30.88;12.07;;;;;;;2.83;25.22;101987.88;5031219;28;20132;-70
2022/03/12 02:34:10;;;;;;;33.47;11.90;;;;;;;2.78;25.11;101979.28;5031338;28;20513;-71
2022/03/12 02:36:39;;;;;;;35.78;12.02;;;;;;;3.28;24.15;101982.91;5023570;28;20062;-71
2022/03/12 02:39:07;;;;;;;32.92;11.60;;;;;;;2.85;25.25;101987.78;5028061;28;20060;-71
2022/03/12 02:41:34;;;;;;;29.10;11.90;;;;;;;2.91;25.21;101977.72;5011115;28;20096;-72
2022/03/12 02:44:00;;;;;;;37.25;13.20;;;;;;;2.81;24.99;101981.78;5017964;28;20128;-71
2022/03/12 02:46:32;;;;;;;31.25;12.50;;;;;;;3.09;24.56;101985.66;5032574;28;20535;-71
2022/03/12 02:48:59;;;;;;;29.23;11.68;;;;;;;2.85;24.86;101979.84;5032741;28;20056;-71
2022/03/12 02:51:26;;;;;;;29.48;11.50;;;;;;;2.67;25.33;101992.25;5032195;28;20053;-71
2022/03/12 02:53:56;;;;;;;31.85;11.85;;;;;;;2.66;25.13;101979.94;5016340;28;20042;-71
2022/03/12 02:56:24;;;;;;;39.03;13.47;;;;;;;2.88;24.81;101979.69;5010311;28;20544;-71
2022/03/12 02:58:51;;;;;;;33.55;12.50;;;;;;;2.55;25.12;101984.94;5011974;28;20104;-71
2022/03/12 03:01:18;;;;;;;30.02;12.20;;;;;;;2.52;25.38;101979.78;5011292;28;20455;-71
2022/03/12 03:03:46;;;;;;;30.55;11.55;;;;;;;2.57;25.68;101985.69;5011059;28;20050;-71
2022/03/12 03:06:14;;;;;;;27.83;12.38;;;;;;;2.27;25.93;101983.66;5011519;28;20113;-71
2022/03/12 03:08:44;;;;;;;34.22;13.05;;;;;;;2.62;25.46;101984.53;5014605;28;20737;-71
2022/03/12 03:11:13;;;;;;;31.15;13.38;;;;;;;2.39;25.52;101976.88;5019918;28;20132;-71
2022/03/12 03:13:43;;;;;;;30.77;12.02;;;;;;;2.46;25.77;101980.09;5023743;28;20052;-71
2022/03/12 03:16:21;;;;;;;31.13;12.07;;;;;;;2.52;25.56;101982.44;5030512;28;20053;-71
2022/03/12 03:18:53;;;;;;;36.25;12.68;;;;;;;1.93;26.51;101974.69;5030747;28;20049;-71
2022/03/12 03:21:25;;;;;;;28.98;12.75;;;;;;;2.31;25.71;101979.06;5030908;28;20069;-71
2022/03/12 03:23:53;;;;;;;38.90;12.32;;;;;;;2.53;25.73;101984.13;5030880;28;20561;-71
2022/03/12 03:26:41;;;;;;;37.40;13.13;;;;;;;2.22;26.12;101976.84;5019093;28;20502;-71
2022/03/12 03:29:08;;;;;;;28.50;11.48;;;;;;;1.78;27.00;101980.66;5011158;28;20137;-71
2022/03/12 03:31:35;;;;;;;30.55;12.52;;;;;;;1.84;26.89;101980.38;5010921;28;20448;-71
2022/03/12 03:34:02;;;;;;;36.22;12.57;;;;;;;1.97;26.54;101980.69;5011361;28;20486;-70
2022/03/12 03:36:29;;;;;;;31.73;12.77;;;;;;;1.94;26.60;101981.69;5011538;28;20076;-71
2022/03/12 03:38:55;;;;;;;32.05;12.18;;;;;;;2.13;26.38;101980.78;5011089;28;20073;-71
2022/03/12 03:41:22;;;;;;;34.83;12.52;;;;;;;1.90;26.66;101979.25;5011719;28;20103;-70
2022/03/12 03:43:48;;;;;;;38.15;12.82;;;;;;;2.06;26.91;101982.91;5027793;28;20128;-71
2022/03/12 03:46:17;;;;;;;31.75;11.75;;;;;;;2.07;26.43;101975.81;5035350;28;20133;-70
2022/03/12 03:48:46;;;;;;;35.05;12.80;;;;;;;1.79;26.47;101977.13;5034859;28;20128;-70
2022/03/12 03:51:13;;;;;;;31.35;11.93;;;;;;;1.48;27.29;101983.81;5033735;28;20137;-70
2022/03/12 03:53:39;;;;;;;34.42;12.18;;;;;;;1.90;26.93;101984.53;5034635;28;20041;-70
2022/03/12 03:56:06;;;;;;;36.80;12.25;;;;;;;1.95;26.70;101983.41;5034935;28;20077;-71
2022/03/12 03:58:34;;;;;;;32.38;11.45;;;;;;;2.12;26.22;101979.09;5034605;28;20088;-70
2022/03/12 04:01:04;;;;;;;36.78;12.10;;;;;;;1.86;26.61;101978.53;5034276;28;20398;-71
2022/03/12 04:03:33;;;;;;;35.88;11.70;;;;;;;1.68;27.06;101980.25;5033701;28;20056;-70
2022/03/12 04:06:04;;;;;;;31.77;11.50;;;;;;;2.00;26.48;101979.69;5035050;28;20053;-71
2022/03/12 04:08:32;;;;;;;24.25;9.30;;;;;;;1.71;27.17;101979.25;5033822;28;20041;-70
2022/03/12 04:11:04;;;;;;;30.45;11.35;;;;;;;2.14;26.44;101985.19;5033321;28;20053;-71
2022/03/12 04:13:32;;;;;;;31.40;11.75;;;;;;;2.11;26.11;101982.69;5033952;28;20053;-70
2022/03/12 04:16:00;;;;;;;34.28;12.48;;;;;;;1.85;26.84;101976.78;5033906;28;20072;-71
2022/03/12 04:18:26;;;;;;;33.03;12.63;;;;;;;1.51;27.13;101980.19;5015294;28;20046;-71
2022/03/12 04:20:53;;;;;;;29.85;12.38;;;;;;;1.53;26.85;101980.97;5014375;28;20045;-71
2022/03/12 04:23:25;;;;;;;33.08;11.75;;;;;;;1.36;27.24;101979.09;5014131;28;20125;-71
2022/03/12 04:25:55;;;;;;;30.55;12.63;;;;;;;1.76;26.88;101979.91;5014025;28;20052;-71
2022/03/12 04:28:23;;;;;;;34.00;13.65;;;;;;;2.03;26.49;101982.22;5006267;28;20073;-71
2022/03/12 04:30:50;;;;;;;30.70;12.57;;;;;;;1.84;26.53;101980.38;5013539;28;20148;-71
2022/03/12 04:33:19;;;;;;;27.80;11.40;;;;;;;2.00;26.28;101985.84;5013493;28;20080;-72
2022/03/12 04:35:47;;;;;;;30.15;12.10;;;;;;;1.99;26.72;101984.09;5012984;28;20076;-72
2022/03/12 04:38:14;;;;;;;38.65;13.48;;;;;;;2.18;26.40;101978.81;5013740;28;20092;-71
2022/03/12 04:40:43;;;;;;;36.92;13.23;;;;;;;1.91;26.76;101981.81;5014811;28;20081;-72
2022/03/12 04:43:14;;;;;;;42.65;13.38;;;;;;;1.78;26.70;101987.75;5013973;28;20176;-71
2022/03/12 04:45:45;;;;;;;29.25;12.23;;;;;;;1.91;26.86;101991.53;5012416;28;20096;-71
2022/03/12 04:48:14;;;;;;;33.75;12.57;;;;;;;1.89;26.51;101983.69;5016412;28;20434;-70
2022/03/12 04:50:41;;;;;;;42.65;12.05;;;;;;;1.64;26.94;101983.09;5024078;28;20109;-70
2022/03/12 04:53:08;;;;;;;34.30;12.73;;;;;;;1.41;27.33;101982.41;5025003;28;20050;-71
2022/03/12 04:55:36;;;;;;;30.45;12.50;;;;;;;2.22;26.75;101985.66;5019210;28;20070;-71
2022/03/12 04:58:04;;;;;;;43.28;14.35;;;;;;;1.91;26.66;101981.81;5029009;28;20133;-71
2022/03/12 05:00:35;;;;;;;37.58;12.57;;;;;;;1.84;26.53;101985.69;5013454;28;20120;-71
2022/03/12 05:03:10;;;;;;;31.80;12.75;;;;;;;2.00;26.90;101983.19;5019014;28;20045;-71
2022/03/12 05:05:41;;;;;;;34.92;13.15;;;;;;;1.96;26.63;101979.00;5033421;28;20056;-71
2022/03/12 05:08:13;;;;;;;47.03;14.13;;;;;;;1.90;26.48;101984.53;5033197;28;20485;-71
2022/03/12 05:10:41;;;;;;;35.22;11.98;;;;;;;1.92;26.73;101983.56;5033068;28;20053;-71
2022/03/12 05:13:11;;;;;;;35.45;12.65;;;;;;;1.91;26.92;101991.53;5022289;28;20125;-71
2022/03/12 05:15:38;;;;;;;31.58;12.20;;;;;;;1.54;27.26;101987.09;5033277;28;20132;-71
2022/03/12 05:18:07;;;;;;;38.28;13.10;;;;;;;1.80;26.93;101981.47;5032752;28;20149;-70
2022/03/12 05:20:38;;;;;;;36.45;12.77;;;;;;;1.55;27.48;101978.25;5032173;28;20482;-70
2022/03/12 05:23:07;;;;;;;37.25;13.10;;;;;;;1.84;26.71;101984.81;5032468;28;20137;-70
2022/03/12 05:25:34;;;;;;;34.72;12.63;;;;;;;1.42;27.60;101989.38;5026231;28;20041;-70
2022/03/12 05:28:01;;;;;;;42.08;13.00;;;;;;;2.18;26.90;101989.38;5027495;28;20136;-71
2022/03/12 05:30:27;;;;;;;34.63;12.63;;;;;;;1.58;27.00;101992.19;5021051;28;20069;-70
2022/03/12 05:32:55;;;;;;;39.28;12.82;;;;;;;1.65;27.19;101998.94;5027306;28;20128;-71
2022/03/12 05:35:21;;;;;;;41.35;12.63;;;;;;;1.68;26.74;102001.44;5032970;28;20065;-71
2022/03/12 05:37:50;;;;;;;34.03;12.57;;;;;;;2.07;26.47;102002.28;4995365;28;20084;-70
2022/03/12 05:40:19;;;;;;;31.67;12.43;;;;;;;1.79;26.94;102000.94;5012843;28;20049;-70
2022/03/12 05:42:47;;;;;;;30.63;12.50;;;;;;;2.01;26.51;101997.28;5013122;28;20050;-70
2022/03/12 05:45:18;;;;;;;35.60;13.73;;;;;;;1.65;26.75;102004.22;5005219;28;20574;-70
2022/03/12 05:47:46;;;;;;;36.47;12.85;;;;;;;1.79;26.94;102011.50;5032677;28;20124;-70
2022/03/12 05:50:14;;;;;;;32.70;11.98;;;;;;;2.31;26.26;102014.34;5031182;28;20097;-71
2022/03/12 05:52:47;;;;;;;28.88;11.85;;;;;;;2.15;26.68;102010.72;5031749;28;20080;-71
2022/03/12 05:55:19;;;;;;;37.10;13.70;;;;;;;1.76;26.91;102011.66;5029062;28;20129;-70
2022/03/12 05:57:45;;;;;;;36.53;12.82;;;;;;;2.16;26.25;102018.56;5020595;28;20048;-70
2022/03/12 06:00:13;;;;;;;31.42;12.40;;;;;;;2.40;26.13;102013.88;5021597;28;20049;-70
2022/03/12 06:02:52;;;;;;;36.88;13.27;;;;;;;1.69;27.08;102013.72;5032129;28;20080;-70
2022/03/12 06:05:24;;;;;;;39.40;13.50;;;;;;;1.97;26.98;102025.69;5031980;28;20057;-71
2022/03/12 06:07:53;;;;;;;33.30;12.20;;;;;;;1.69;27.19;102016.38;5032791;28;20045;-70
2022/03/12 06:10:23;;;;;;;38.88;13.18;;;;;;;1.90;26.84;102019.78;5032327;28;20128;-70
2022/03/12 06:12:53;;;;;;;35.05;13.07;;;;;;;1.85;26.66;102021.78;5022248;28;20448;-71
2022/03/12 06:15:24;;;;;;;39.88;13.32;;;;;;;1.83;26.89;102013.06;5020856;28;20041;-71
2022/03/12 06:17:51;;;;;;;34.45;12.75;;;;;;;1.96;27.13;102013.41;5012094;28;20042;-71
2022/03/12 06:20:23;;;;;;;37.85;12.70;;;;;;;2.05;26.40;102017.38;5027749;28;20045;-71
2022/03/12 06:22:51;;;;;;;27.55;12.02;;;;;;;2.13;26.44;102012.56;5032525;28;20144;-71
2022/03/12 06:25:18;;;;;;;39.58;14.13;;;;;;;2.53;25.84;102023.88;5031620;28;20422;-71
2022/03/12 06:27:53;;;;;;;38.65;13.52;;;;;;;2.43;26.14;102021.66;5031334;28;20045;-71
2022/03/12 06:30:24;;;;;;;40.75;13.15;;;;;;;1.89;26.56;102014.59;5032516;28;20095;-70
2022/03/12 06:32:52;;;;;;;36.00;12.05;;;;;;;1.78;26.90;102023.00;5025170;28;20053;-71
2022/03/12 06:35:19;;;;;;;36.80;12.57;;;;;;;1.97;26.70;102020.41;5014749;28;20556;-71
2022/03/12 06:37:46;;;;;;;34.78;11.80;;;;;;;1.89;26.59;102022.53;5032076;28;20097;-71
2022/03/12 06:40:14;;;;;;;32.40;12.40;;;;;;;2.15;26.15;102021.31;5024437;28;20060;-71
2022/03/12 06:42:43;;;;;;;35.45;13.43;;;;;;;2.27;26.04;102015.44;5011777;28;20053;-71
2022/03/12 06:45:10;;;;;;;35.88;13.20;;;;;;;2.07;26.25;102019.03;5011382;28;20505;-71
2022/03/12 06:47:38;;;;;;;34.17;12.75;;;;;;;2.35;25.84;102021.19;5011000;28;20138;-71
2022/03/12 06:50:08;;;;;;;36.58;13.27;;;;;;;2.33;26.09;102017.75;5028782;28;20076;-71
2022/03/12 06:52:35;;;;;;;32.42;12.05;;;;;;;2.35;26.16;102028.28;5031040;28;20397;-71
2022/03/12 06:55:03;;;;;;;39.88;13.35;;;;;;;1.75;26.96;102020.53;5030244;28;20073;-71
2022/03/12 06:57:30;;;;;;;30.77;12.77;;;;;;;2.69;25.50;102022.19;5031148;28;20045;-71
2022/03/12 06:59:57;;;;;;;36.15;13.18;;;;;;;2.83;25.60;102019.69;5032696;28;20135;-71
2022/03/12 07:02:23;;;;;;;32.40;12.40;;;;;;;2.58;25.62;102033.31;5030331;28;20065;-71
2022/03/12 07:04:50;;;;;;;36.40;13.50;;;;;;;2.81;25.59;102026.00;5030331;28;20139;-70
2022/03/12 07:07:17;;;;;;;39.85;13.52;;;;;;;3.65;24.42;102024.19;5011303;28;20142;-71
2022/03/12 07:09:43;;;;;;;29.58;12.05;;;;;;;4.25;24.05;102020.91;5020824;28;20508;-72
2022/03/12 07:12:11;;;;;;;29.40;13.57;;;;;;;4.87;23.14;102019.06;5029629;28;20452;-71
2022/03/12 07:14:38;;;;;;;30.33;13.00;;;;;;;4.67;23.41;102024.72;5012270;28;20129;-71
2022/03/12 07:17:04;;;;;;;30.20;13.52;;;;;;;5.52;22.22;102029.28;5011637;28;20141;-72
2022/03/12 07:19:31;;;;;;;32.03;12.90;;;;;;;4.92;22.68;102035.59;5010977;28;20057;-72
2022/03/12 07:21:57;;;;;;;33.30;12.98;;;;;;;6.20;21.48;102034.72;5024042;28;20128;-72
2022/03/12 07:24:24;;;;;;;26.92;12.13;;;;;;;6.53;20.45;102032.63;5014237;28;20117;-71
2022/03/12 07:26:50;;;;;;;36.47;13.52;;;;;;;6.43;20.77;102024.41;5031114;28;20412;-72
2022/03/12 07:29:17;;;;;;;35.92;13.52;;;;;;;6.51;20.46;102035.41;5031213;28;20129;-71
2022/03/12 07:31:43;;;;;;;30.42;12.45;;;;;;;5.30;21.42;102037.75;5031230;28;20046;-72
2022/03/12 07:34:10;;;;;;;27.38;12.65;;;;;;;6.81;20.40;102045.84;5031059;28;20137;-71
2022/03/12 07:36:37;;;;;;;31.83;12.95;;;;;;;8.03;19.52;102036.44;5030501;28;20049;-71
2022/03/12 07:39:03;;;;;;;27.42;13.68;;;;;;;7.87;18.87;102043.84;5031271;28;20049;-72
2022/03/12 07:41:31;;;;;;;30.52;14.40;;;;;;;6.62;20.29;102035.53;5030886;28;20196;-71
2022/03/12 07:43:57;;;;;;;31.00;13.43;;;;;;;7.49;19.41;102030.50;5014728;28;20059;-73
2022/03/12 07:46:24;;;;;;;29.27;12.65;;;;;;;8.97;17.87;102040.16;5026473;28;20046;-71
2022/03/12 07:48:51;;;;;;;32.28;13.30;;;;;;;8.21;18.34;102042.25;5016470;28;20486;-72
2022/03/12 07:51:17;;;;;;;30.35;13.40;;;;;;;8.75;17.99;102035.59;5028992;28;20096;-72
2022/03/12 07:53:43;;;;;;;26.13;11.90;;;;;;;8.32;18.59;102036.09;5025547;28;20042;-72
2022/03/12 07:56:10;;;;;;;26.48;12.93;;;;;;;9.59;17.43;102041.63;5025138;28;20054;-72
2022/03/12 07:58:37;;;;;;;31.80;12.50;;;;;;;8.88;17.71;102027.47;5017288;28;20091;-72
2022/03/12 08:01:05;;;;;;;26.27;11.60;;;;;;;9.01;17.77;102030.91;5027368;28;20050;-72
2022/03/12 08:03:35;;;;;;;27.10;12.07;;;;;;;8.92;17.80;102027.13;5025577;28;20049;-73
2022/03/12 08:06:04;;;;;;;25.70;10.90;;;;;;;7.86;18.02;102036.78;5011169;28;20058;-72
2022/03/12 08:08:31;;;;;;;25.33;11.40;;;;;;;8.04;18.41;102031.94;5010156;28;20446;-72
2022/03/12 08:13:43;;;;;;;25.30;10.82;;;;;;;9.44;17.04;102033.81;5026048;28;20477;-75
2022/03/12 08:16:13;;;;;;;28.20;11.15;;;;;;;8.95;16.76;102042.91;5030927;28;20080;-75
2022/03/12 08:18:40;;;;;;;28.58;10.90;;;;;;;7.00;18.52;102048.09;5030505;28;20147;-75
2022/03/12 08:21:06;;;;;;;25.95;11.13;;;;;;;8.16;17.71;102047.09;5030531;28;20054;-76
2022/03/12 08:23:34;;;;;;;26.60;11.07;;;;;;;9.62;16.39;102039.53;5029270;28;20072;-76
2022/03/12 08:26:01;;;;;;;19.65;10.32;;;;;;;9.52;16.11;102030.53;5031379;28;20073;-76
2022/03/12 08:28:28;;;;;;;23.20;10.63;;;;;;;9.71;16.24;102037.94;5031269;28;20105;-76
2022/03/12 08:30:55;;;;;;;21.92;10.05;;;;;;;10.78;15.38;102042.59;5033603;28;20083;-76
2022/03/12 08:33:21;;;;;;;22.48;9.63;;;;;;;10.60;15.31;102044.13;5031933;28;20077;-76
2022/03/12 08:35:48;;;;;;;21.85;9.52;;;;;;;9.59;15.83;102041.63;5033026;28;20508;-76
2022/03/12 08:38:15;;;;;;;27.05;9.77;;;;;;;10.15;14.90;102037.03;5034488;28;20041;-76
2022/03/12 08:40:41;;;;;;;23.10;9.60;;;;;;;9.95;14.97;102038.66;5011171;28;20042;-76
2022/03/12 08:43:08;;;;;;;25.30;9.98;;;;;;;7.89;16.85;102042.78;5015446;28;20141;-76
2022/03/12 08:45:34;;;;;;;20.02;9.95;;;;;;;9.89;15.67;102035.59;5034208;28;20137;-76
2022/03/12 08:48:01;;;;;;;17.67;9.25;;;;;;;10.31;14.93;102027.75;5029350;28;20413;-76
2022/03/12 08:50:27;;;;;;;20.08;8.85;;;;;;;9.88;14.67;102026.72;4996726;28;20050;-76
2022/03/12 08:52:54;;;;;;;19.48;9.05;;;;;;;9.19;15.33;102033.97;5013871;28;20076;-76
2022/03/12 08:55:20;;;;;;;26.10;8.65;;;;;;;9.68;15.19;102035.50;5013997;28;20058;-77
2022/03/12 08:57:48;;;;;;;18.55;8.68;;;;;;;8.97;15.27;102041.00;5030085;28;20076;-76
2022/03/12 09:00:15;;;;;;;21.38;8.43;;;;;;;10.22;14.57;102022.16;5033657;28;20077;-75
2022/03/12 09:02:42;;;;;;;18.58;8.95;;;;;;;8.54;15.55;102036.22;5034029;28;20072;-75
2022/03/12 09:05:12;;;;;;;21.20;8.93;;;;;;;9.16;15.38;102040.44;5033669;28;20580;-75
2022/03/12 09:07:41;;;;;;;18.77;8.65;;;;;;;8.61;15.84;102037.47;5033922;28;20050;-75
2022/03/12 09:10:11;;;;;;;17.52;8.27;;;;;;;9.71;15.09;102043.31;5034360;28;20512;-74
2022/03/12 09:12:41;;;;;;;20.15;8.27;;;;;;;10.28;14.64;102034.22;5037575;28;20123;-75
2022/03/12 09:15:09;;;;;;;21.38;8.35;;;;;;;8.81;15.27;102040.44;5015648;28;20111;-73
2022/03/12 09:17:36;;;;;;;18.58;9.57;;;;;;;11.81;13.79;102021.13;5014935;28;20074;-75
2022/03/12 09:20:04;;;;;;;19.35;9.15;;;;;;;11.75;13.38;102032.41;5015293;28;20128;-75
2022/03/12 09:22:31;;;;;;;18.42;8.50;;;;;;;10.99;13.39;102035.38;5185140;22;20116;-75
2022/03/12 09:24:57;;;;;;;19.08;8.55;;;;;;;9.86;14.25;102038.56;5071350;28;20132;-75
2022/03/12 09:27:24;;;;;;;19.00;8.63;;;;;;;10.25;14.12;102029.09;5070113;28;20507;-75
2022/03/12 09:29:50;;;;;;;21.10;9.50;;;;;;;12.01;13.32;102027.41;5073145;28;20139;-75
2022/03/12 09:32:17;;;;;;;18.77;8.75;;;;;;;10.96;13.42;102029.41;5073006;28;20484;-75
2022/03/12 09:34:43;;;;;;;17.70;8.98;;;;;;;11.17;13.48;102022.25;5072235;28;20058;-75
2022/03/12 09:37:14;;;;;;;16.07;8.63;;;;;;;9.71;14.64;102029.91;5072028;28;20119;-74
2022/03/12 09:39:41;;;;;;;23.40;9.65;;;;;;;10.72;14.38;102018.94;5072074;28;20477;-74
2022/03/12 09:42:08;;;;;;;18.63;8.55;;;;;;;10.52;14.13;102015.25;5070973;28;20563;-74
2022/03/12 09:44:34;;;;;;;22.10;9.20;;;;;;;10.35;13.79;102013.94;5071917;28;20115;-74
2022/03/12 09:47:01;;;;;;;19.73;8.50;;;;;;;11.29;13.63;102009.56;5072608;28;20052;-75
2022/03/12 09:49:28;;;;;;;22.67;8.73;;;;;;;11.06;13.68;102013.38;5073979;28;20052;-75
2022/03/12 09:51:57;;;;;;;17.85;8.90;;;;;;;11.51;13.58;102010.38;5073084;28;20093;-75
2022/03/12 09:54:24;;;;;;;16.35;8.52;;;;;;;13.02;12.42;102004.66;5035192;28;20109;-75
2022/03/12 09:56:51;;;;;;;16.73;8.85;;;;;;;13.74;12.10;101992.34;5038435;28;20460;-74
2022/03/12 09:59:17;;;;;;;19.10;9.02;;;;;;;11.64;13.31;102009.16;5054124;28;20088;-74
2022/03/12 10:01:43;;;;;;;20.95;9.20;;;;;;;11.69;13.56;101995.34;5054713;28;20071;-76
2022/03/12 10:04:10;;;;;;;18.10;8.35;;;;;;;11.86;12.82;102002.75;5053078;28;20060;-76
2022/03/12 10:06:37;;;;;;;18.92;8.85;;;;;;;10.63;13.59;101992.88;5053814;28;20065;-76
2022/03/12 10:09:04;;;;;;;15.82;8.15;;;;;;;10.88;13.85;101992.50;5054615;28;20051;-76
2022/03/12 10:11:30;;;;;;;16.77;8.98;;;;;;;11.28;13.74;101989.06;5053140;28;20124;-76
2022/03/12 10:13:57;;;;;;;18.33;8.90;;;;;;;11.50;13.28;101985.34;5052788;28;20085;-76
2022/03/12 10:16:25;;;;;;;16.13;8.70;;;;;;;13.05;12.62;101979.28;5053317;28;20075;-76
2022/03/12 10:18:52;;;;;;;18.83;8.18;;;;;;;10.92;13.45;101975.13;5053740;28;20085;-76
2022/03/12 10:21:20;;;;;;;22.13;8.60;;;;;;;11.25;13.84;101975.91;5052944;28;20227;-76
2022/03/12 10:23:46;;;;;;;17.02;7.88;;;;;;;12.40;12.80;101979.03;5052150;28;20049;-76
2022/03/12 10:26:13;;;;;;;18.92;8.38;;;;;;;13.04;12.47;101977.56;5053207;28;20091;-76
2022/03/12 10:28:40;;;;;;;18.13;7.72;;;;;;;13.66;12.07;101973.34;5052722;28;20075;-76
2022/03/12 10:31:09;;;;;;;15.18;7.40;;;;;;;13.88;11.89;101965.91;5054413;28;20045;-74
2022/03/12 10:33:36;;;;;;;13.95;7.90;;;;;;;12.57;12.63;101964.03;5052888;28;20045;-75
2022/03/12 10:36:15;;;;;;;14.70;7.82;;;;;;;13.29;12.37;101966.16;5071716;28;20044;-75
2022/03/12 10:38:52;;;;;;;17.45;7.45;;;;;;;12.44;12.26;101968.84;5054431;28;20072;-75
2022/03/12 10:41:18;;;;;;;14.77;6.95;;;;;;;12.70;12.14;101967.28;5052408;28;20132;-75
2022/03/12 10:43:52;;;;;;;14.18;6.93;;;;;;;13.66;11.68;101953.63;5051473;28;20065;-76
2022/03/12 10:46:28;;;;;;;14.20;6.72;;;;;;;13.12;11.88;101964.22;5051316;28;20179;-76
2022/03/12 10:48:57;;;;;;;18.38;7.25;;;;;;;13.02;11.54;101952.63;5046186;28;20431;-76
2022/03/12 10:51:31;;;;;;;14.50;6.28;;;;;;;12.49;11.58;101948.59;5050886;28;20135;-75
2022/03/12 10:54:08;;;;;;;11.07;5.97;;;;;;;12.26;11.74;101949.88;5051243;28;20124;-76
2022/03/12 10:56:43;;;;;;;15.20;6.20;;;;;;;12.23;11.82;101956.38;5050613;28;20406;-75
2022/03/12 10:59:16;;;;;;;14.50;6.65;;;;;;;11.89;12.17;101954.06;5061138;28;20040;-75
2022/03/12 11:01:58;;;;;;;13.73;5.95;;;;;;;12.84;11.35;101939.06;5070799;28;20048;-75
2022/03/12 11:04:29;;;;;;;10.70;5.53;;;;;;;13.21;11.18;101939.06;5071258;28;20394;-74
2022/03/12 11:06:59;;;;;;;12.40;5.55;;;;;;;12.35;11.32;101944.50;5071553;28;20071;-75
2022/03/12 11:09:37;;;;;;;10.85;6.03;;;;;;;13.02;11.47;101933.78;5071251;28;20055;-74
2022/03/12 11:12:28;;;;;;;12.07;6.30;;;;;;;13.06;11.64;101937.88;5053386;28;20123;-75
2022/03/12 11:15:08;;;;;;;13.97;6.20;;;;;;;13.25;11.36;101937.81;5051902;28;20064;-76
2022/03/12 11:17:44;;;;;;;11.45;5.72;;;;;;;12.60;11.71;101932.28;5051668;28;20280;-75
2022/03/12 11:20:17;;;;;;;16.45;6.20;;;;;;;12.75;11.70;101927.31;5068673;28;20139;-75
2022/03/12 11:23:10;;;;;;;12.77;6.75;;;;;;;12.72;11.91;101927.56;5059373;28;20130;-75
2022/03/12 11:25:59;;;;;;;17.00;5.65;;;;;;;13.30;11.42;101922.03;5054520;28;20099;-76
2022/03/12 11:28:29;;;;;;;14.38;7.38;;;;;;;13.21;11.31;101925.59;5052994;28;20068;-74
2022/03/12 11:30:56;;;;;;;22.95;6.03;;;;;;;12.26;11.75;101929.19;5071435;28;20044;-74